Yankton, SD (57078)

05:38 AM CDT on Ιούλιος 03, 2015 (GMT -0500)
Riverside Acres, along river | | Change Station
CLOSE
Current Station
Personal Weather Stations
Location: Yankton, SD
Elevation: 1188 ft
Nearby Weather Stations

Elev 1188 ft 42.85 °N, 97.45 °W | Updated 4 seconds ago

Νεφοσκεπής
Νεφοσκεπής
61.5 ° F
Feels Like 61.5 ° F
N
0.0
Ανεμος Μεταβλητός Ανεμος from ΑΝΑ
Gusts 0.0 mph

Σήμερα
High -- | Low -- ° F
--% Chance of Precip.
Yesterday
High -- | Low -- ° F
Precip. -- in
5:55 AM 9:11 PM
Πανσέληνος, 98% visible
Ατμοσφαιρική Πίεση 30.02 in
Ορατότητα 0.5 Μίλια
Σύννεφα Νεφελώδης 400 ft
Νεφελώδης 1100 ft
Νεφελώδης 2000 ft
Σημείο Δρόσου 61 ° F
Υγρασία 98%
Rainfall 0.00 in
Snow Depth Not available.
Υπεριώδης ακτινοβολία (UV) 0.0 out of 12
Pollen .60 out of 12
Air Quality Not available.
Flu Activity Not available.
METAR KLCG 031015Z AUTO 00000KT 1/2SM FG BKN004 BKN011 BKN020 13/13 A3002 RMK AO2 T01270125

More Conditions Fewer Conditions

Ατμοσφαιρική Πίεση 30.02 in
Ορατότητα 0.5 Μίλια
Σύννεφα Νεφελώδης 400 ft
Νεφελώδης 1100 ft
Νεφελώδης 2000 ft
Σημείο Δρόσου 61 ° F
Υγρασία 98%
Rainfall 0.00 in
Snow Depth Not available.
Υπεριώδης ακτινοβολία (UV) 0.0 out of 12
Pollen .60 out of 12
Air Quality Not available.
Flu Activity Not available.
METAR KLCG 031015Z AUTO 00000KT 1/2SM FG BKN004 BKN011 BKN020 13/13 A3002 RMK AO2 T01270125

More Conditions Fewer Conditions

10-Day Weather Forecast

×

Almanac

Αστρονομία

Jul. 03, 2015 Rise Set
Actual Time
Civil Twilight
Nautical Twilight
Astronomical Twilight
Moon
Length Of Visible Light
Διάρκεια ημέρας
Tomorrow will be .
, % of the Moon is Illuminated

Today's Extremes

State Highs State Lows

Community

WunderPhotos

Upload Photos

1,834,647 photos uploaded!

WunderBlogs® & News

Nearby

Air Quality

  Air Quality AQ Index Pollutant
Not available.

Snow Depth

Station Depth Elevation

Earthquake Activity

City Distance Mag. Time & Date
Minimum magnitude displayed is 2.5.

Coastal Water Temperatures

Τοποθεσία Θερμοκρασία

Stations

Nearby Weather Stations

Station Location Temp Δείκτης Ψυχρότητας Σημείο Δρόσου Υγρασία Ανεμος Precip. Elev Ενημερώθηκε Type